Time;durP1;ratioP1;P1;durP2;ratioP2;P2;SDS_P1;SDS_P2;PMS_P1;PMS_P2;Temp;Humidity;BMP_temperature;BMP_pressure;BME280_temperature;BME280_humidity;BME280_pressure;Samples;Min_cycle;Max_cycle;Signal;HPM_P1;HPM_P2
2022/10/31 00:00:01;;;;;;;;;;;15.00;99.90;;;;;;5036142;28;19924;-82
2022/10/31 00:02:26;;;;;;;;;;;15.00;99.90;;;;;;5036387;28;20314;-81
2022/10/31 00:04:52;;;;;;;;;;;15.00;99.90;;;;;;5036188;28;19909;-82
2022/10/31 00:07:17;;;;;;;;;;;14.90;99.90;;;;;;5053676;28;19962;-81
2022/10/31 00:09:42;;;;;;;;;;;14.90;99.90;;;;;;5036278;28;19952;-81
2022/10/31 00:12:08;;;;;;;;;;;14.90;99.90;;;;;;5053861;28;19963;-82
2022/10/31 00:14:33;;;;;;;;;;;14.90;99.90;;;;;;5053792;28;20341;-81
2022/10/31 00:16:59;;;;;;;;;;;14.90;99.90;;;;;;5053597;28;19913;-82
2022/10/31 00:19:24;;;;;;;;;;;14.90;99.90;;;;;;5053778;28;19908;-81
2022/10/31 00:21:51;;;;;;;;;;;14.90;99.90;;;;;;5035794;28;19951;-82
2022/10/31 00:24:16;;;;;;;;;;;14.80;99.90;;;;;;5035762;28;19948;-81
2022/10/31 00:26:42;;;;;;;;;;;14.80;99.90;;;;;;5053293;28;20335;-81
2022/10/31 00:29:07;;;;;;;;;;;14.80;99.90;;;;;;5053589;28;19909;-81
2022/10/31 00:31:33;;;;;;;;;;;14.80;99.90;;;;;;5035812;28;20000;-81
2022/10/31 00:33:58;;;;;;;;;;;14.70;99.90;;;;;;5035630;28;19919;-81
2022/10/31 00:36:24;;;;;;;;;;;14.70;99.90;;;;;;5035613;28;19920;-82
2022/10/31 00:38:49;;;;;;;;;;;14.80;99.90;;;;;;5053608;28;19919;-81
2022/10/31 00:41:16;;;;;;;;;;;14.80;99.90;;;;;;5035603;28;19960;-81
2022/10/31 00:43:42;;;;;;;;;;;14.80;99.90;;;;;;5053227;28;19947;-82
2022/10/31 00:46:08;;;;;;;;;;;14.90;99.90;;;;;;5035835;28;19909;-82
2022/10/31 00:48:33;;;;;;;;;;;14.90;99.90;;;;;;5035552;28;19947;-81
2022/10/31 00:50:59;;;;;;;;;;;14.90;99.90;;;;;;5053467;28;19975;-82
2022/10/31 00:53:24;;;;;;;;;;;14.90;99.90;;;;;;5034755;28;19920;-81
2022/10/31 00:55:50;;;;;;;;;;;14.90;99.90;;;;;;5034997;28;19916;-81
2022/10/31 00:58:15;;;;;;;;;;;15.00;99.90;;;;;;5053096;28;20334;-81
2022/10/31 01:00:41;;;;;;;;;;;15.00;99.90;;;;;;5052859;28;19921;-82
2022/10/31 01:03:06;;;;;;;;;;;15.00;99.90;;;;;;5035084;28;19931;-82
2022/10/31 01:05:32;;;;;;;;;;;15.10;99.90;;;;;;5052587;28;19916;-81
2022/10/31 01:07:58;;;;;;;;;;;15.10;99.90;;;;;;5052996;28;20015;-81
2022/10/31 01:10:23;;;;;;;;;;;15.20;99.90;;;;;;5052837;28;19915;-82
2022/10/31 01:12:49;;;;;;;;;;;15.20;99.90;;;;;;5052851;28;19909;-81
2022/10/31 01:15:16;;;;;;;;;;;15.10;99.90;;;;;;5052763;28;19917;-81
2022/10/31 01:17:41;;;;;;;;;;;15.10;99.90;;;;;;5034661;28;19909;-81
2022/10/31 01:20:08;;;;;;;;;;;15.10;99.90;;;;;;5052532;28;19924;-81
2022/10/31 01:22:33;;;;;;;;;;;15.00;99.90;;;;;;5052677;28;19959;-81
2022/10/31 01:24:58;;;;;;;;;;;15.00;99.90;;;;;;5052823;28;20037;-81
2022/10/31 01:27:24;;;;;;;;;;;15.00;99.90;;;;;;5034527;28;20368;-81
2022/10/31 01:29:50;;;;;;;;;;;15.00;99.90;;;;;;5052764;28;19912;-82
2022/10/31 01:32:15;;;;;;;;;;;14.90;99.90;;;;;;5034798;28;20288;-82
2022/10/31 01:34:41;;;;;;;;;;;14.90;99.90;;;;;;5052537;28;19920;-83
2022/10/31 01:37:06;;;;;;;;;;;14.90;99.90;;;;;;5052140;28;19948;-81
2022/10/31 01:39:32;;;;;;;;;;;14.80;99.90;;;;;;5034544;28;19909;-81
2022/10/31 01:41:57;;;;;;;;;;;14.80;99.90;;;;;;5034489;28;19913;-81
2022/10/31 01:44:23;;;;;;;;;;;14.70;99.90;;;;;;5034496;28;20315;-81
2022/10/31 01:47:08;;;;;;;;;;;14.70;99.90;;;;;;5034081;28;19949;-81
2022/10/31 01:49:39;;;;;;;;;;;14.70;99.90;;;;;;5023843;28;19909;-81
2022/10/31 01:52:14;;;;;;;;;;;14.60;99.90;;;;;;5052109;28;20431;-81
2022/10/31 01:54:40;;;;;;;;;;;14.60;99.90;;;;;;5052237;28;19917;-81
2022/10/31 01:57:08;;;;;;;;;;;14.60;99.90;;;;;;5052146;28;19963;-81
2022/10/31 01:59:36;;;;;;;;;;;14.60;99.90;;;;;;5052342;28;20269;-81
2022/10/31 02:02:01;;;;;;;;;;;14.50;99.90;;;;;;5052095;28;19948;-81
2022/10/31 02:04:27;;;;;;;;;;;14.50;99.90;;;;;;5034450;28;19909;-81
2022/10/31 02:07:02;;;;;;;;;;;14.50;99.90;;;;;;5037027;28;19912;-81
2022/10/31 02:09:28;;;;;;;;;;;14.40;99.90;;;;;;5038336;28;19954;-81
2022/10/31 02:11:56;;;;;;;;;;;14.40;99.90;;;;;;5056219;28;19909;-82
2022/10/31 02:14:23;;;;;;;;;;;14.40;99.90;;;;;;5056127;28;19962;-80
2022/10/31 02:16:48;;;;;;;;;;;14.40;99.90;;;;;;5055878;28;19908;-82
2022/10/31 02:19:18;;;;;;;;;;;14.30;99.90;;;;;;5038064;28;19915;-81
2022/10/31 02:21:55;;;;;;;;;;;14.30;99.90;;;;;;5038079;28;19997;-81
2022/10/31 02:24:23;;;;;;;;;;;14.20;99.90;;;;;;5037837;28;19909;-81
2022/10/31 02:26:48;;;;;;;;;;;14.20;99.90;;;;;;5037735;28;19916;-81
2022/10/31 02:29:26;;;;;;;;;;;14.10;99.90;;;;;;5055625;28;19908;-81
2022/10/31 02:32:21;;;;;;;;;;;14.20;99.90;;;;;;5037817;28;19909;-81
2022/10/31 02:34:57;;;;;;;;;;;14.20;99.90;;;;;;5038470;28;20016;-81
2022/10/31 02:37:30;;;;;;;;;;;14.10;99.90;;;;;;5055426;28;19909;-81
2022/10/31 02:40:01;;;;;;;;;;;14.00;99.90;;;;;;5055424;28;19909;-81
2022/10/31 02:42:47;;;;;;;;;;;14.00;99.90;;;;;;5055450;28;19909;-81
2022/10/31 02:45:25;;;;;;;;;;;14.00;99.90;;;;;;5036943;28;20021;-81
2022/10/31 02:47:53;;;;;;;;;;;13.90;99.90;;;;;;5037618;28;20008;-81
2022/10/31 02:50:23;;;;;;;;;;;13.90;99.90;;;;;;5037410;28;19913;-81
2022/10/31 02:52:52;;;;;;;;;;;13.90;99.90;;;;;;5054128;28;19909;-81
2022/10/31 02:55:24;;;;;;;;;;;13.80;99.90;;;;;;5037915;28;19913;-81
2022/10/31 02:57:51;;;;;;;;;;;13.80;99.90;;;;;;5037576;28;19919;-81
2022/10/31 03:00:17;;;;;;;;;;;13.70;99.90;;;;;;5037598;28;19920;-80
2022/10/31 03:02:54;;;;;;;;;;;13.70;99.90;;;;;;5055292;28;19913;-80
2022/10/31 03:05:32;;;;;;;;;;;13.60;99.90;;;;;;5037411;28;19917;-80
2022/10/31 03:08:02;;;;;;;;;;;13.60;99.90;;;;;;5055171;28;19909;-80
2022/10/31 03:10:54;;;;;;;;;;;13.60;99.90;;;;;;5037303;28;19909;-80
2022/10/31 03:13:29;;;;;;;;;;;13.60;99.90;;;;;;5033336;28;19952;-80
2022/10/31 03:15:59;;;;;;;;;;;13.60;99.90;;;;;;5054529;28;19913;-80
2022/10/31 03:18:37;;;;;;;;;;;13.60;99.90;;;;;;5036889;28;20391;-80
2022/10/31 03:21:21;;;;;;;;;;;13.50;99.90;;;;;;5054973;28;19915;-80
2022/10/31 03:23:49;;;;;;;;;;;13.60;99.90;;;;;;5036935;28;19913;-80
2022/10/31 03:26:15;;;;;;;;;;;13.50;99.90;;;;;;5054714;28;20335;-80
2022/10/31 03:28:44;;;;;;;;;;;13.50;99.90;;;;;;5054780;28;19995;-80
2022/10/31 03:31:13;;;;;;;;;;;13.50;99.90;;;;;;5036776;28;20295;-80
2022/10/31 03:33:42;;;;;;;;;;;13.50;99.90;;;;;;5054623;28;19967;-80
2022/10/31 03:36:08;;;;;;;;;;;13.40;99.90;;;;;;5054343;28;19917;-80
2022/10/31 03:38:35;;;;;;;;;;;13.40;99.90;;;;;;5053223;28;19909;-80
2022/10/31 03:41:02;;;;;;;;;;;13.40;99.90;;;;;;5054503;28;19909;-80
2022/10/31 03:43:30;;;;;;;;;;;13.40;99.90;;;;;;5036453;28;19991;-80
2022/10/31 03:45:55;;;;;;;;;;;13.40;99.90;;;;;;5052945;28;19947;-80
2022/10/31 03:48:21;;;;;;;;;;;13.30;99.90;;;;;;5054468;28;19909;-80
2022/10/31 03:50:50;;;;;;;;;;;13.30;99.90;;;;;;5054397;28;20368;-80
2022/10/31 03:53:26;;;;;;;;;;;13.30;99.90;;;;;;5036140;28;19916;-80
2022/10/31 03:55:59;;;;;;;;;;;13.30;99.90;;;;;;5036250;28;19916;-81
2022/10/31 03:58:26;;;;;;;;;;;13.20;99.90;;;;;;5054227;28;19999;-80
2022/10/31 04:00:54;;;;;;;;;;;13.20;99.90;;;;;;5054085;28;19916;-80
2022/10/31 04:03:22;;;;;;;;;;;13.20;99.90;;;;;;5054175;28;19912;-80
2022/10/31 04:05:49;;;;;;;;;;;13.20;99.90;;;;;;5036096;28;19908;-80
2022/10/31 04:08:19;;;;;;;;;;;13.30;99.90;;;;;;5054008;28;19988;-81
2022/10/31 04:10:46;;;;;;;;;;;13.30;99.90;;;;;;5053956;28;20319;-81
2022/10/31 04:13:13;;;;;;;;;;;13.30;99.90;;;;;;5053947;28;19909;-80
2022/10/31 04:15:41;;;;;;;;;;;13.40;99.90;;;;;;5053489;28;19923;-80
2022/10/31 04:18:06;;;;;;;;;;;13.40;99.90;;;;;;5052766;28;20486;-80
2022/10/31 04:20:32;;;;;;;;;;;13.40;99.90;;;;;;5035845;28;19954;-80
2022/10/31 04:22:57;;;;;;;;;;;13.40;99.90;;;;;;5053795;28;19915;-80
2022/10/31 04:25:23;;;;;;;;;;;13.40;99.90;;;;;;5053596;28;20404;-81
2022/10/31 04:27:48;;;;;;;;;;;13.40;99.90;;;;;;5035688;28;19909;-80
2022/10/31 04:30:14;;;;;;;;;;;13.30;99.90;;;;;;5053228;28;19952;-80
2022/10/31 04:32:39;;;;;;;;;;;13.30;99.90;;;;;;5053759;28;20322;-80
2022/10/31 04:35:05;;;;;;;;;;;13.30;99.90;;;;;;5053523;28;19913;-81
2022/10/31 04:37:31;;;;;;;;;;;13.30;99.90;;;;;;5035370;28;19916;-80
2022/10/31 04:39:56;;;;;;;;;;;13.30;99.90;;;;;;5053726;28;20423;-80
2022/10/31 04:42:21;;;;;;;;;;;13.30;99.90;;;;;;5053245;28;20330;-80
2022/10/31 04:44:47;;;;;;;;;;;13.30;99.90;;;;;;5035681;28;19909;-80
2022/10/31 04:47:12;;;;;;;;;;;13.30;99.90;;;;;;5053113;28;19959;-80
2022/10/31 04:49:38;;;;;;;;;;;13.30;99.90;;;;;;5053306;28;19958;-81
2022/10/31 04:52:03;;;;;;;;;;;13.30;99.90;;;;;;5053153;28;19909;-80
2022/10/31 04:54:29;;;;;;;;;;;13.40;99.90;;;;;;5053179;28;19963;-80
2022/10/31 04:56:54;;;;;;;;;;;13.40;99.90;;;;;;5052915;28;20007;-80
2022/10/31 04:59:20;;;;;;;;;;;13.40;99.90;;;;;;5052979;28;19917;-80
2022/10/31 05:01:45;;;;;;;;;;;13.50;99.90;;;;;;5035452;28;19909;-80
2022/10/31 05:04:11;;;;;;;;;;;13.50;99.90;;;;;;5053141;28;19909;-81
2022/10/31 05:06:36;;;;;;;;;;;13.60;99.90;;;;;;5053187;28;20039;-80
2022/10/31 05:09:02;;;;;;;;;;;13.60;99.90;;;;;;5035041;28;19983;-80
2022/10/31 05:11:27;;;;;;;;;;;13.60;99.90;;;;;;5053145;28;19913;-80
2022/10/31 05:13:52;;;;;;;;;;;13.60;99.90;;;;;;5052872;28;20331;-80
2022/10/31 05:16:18;;;;;;;;;;;13.60;99.90;;;;;;5052459;28;19920;-80
2022/10/31 05:18:43;;;;;;;;;;;13.60;99.90;;;;;;5052654;28;19971;-80
2022/10/31 05:21:09;;;;;;;;;;;13.60;99.90;;;;;;5052596;28;19952;-80
2022/10/31 05:23:34;;;;;;;;;;;13.60;99.90;;;;;;5034746;28;19909;-80
2022/10/31 05:26:00;;;;;;;;;;;13.70;99.90;;;;;;5052431;28;19952;-80
2022/10/31 05:28:25;;;;;;;;;;;13.70;99.90;;;;;;5052719;28;20365;-80
2022/10/31 05:30:51;;;;;;;;;;;13.70;99.90;;;;;;5052674;28;20016;-81
2022/10/31 05:33:16;;;;;;;;;;;13.70;99.90;;;;;;5052377;28;19916;-80
2022/10/31 05:35:42;;;;;;;;;;;13.60;99.90;;;;;;5034480;28;20280;-80
2022/10/31 05:38:07;;;;;;;;;;;13.60;99.90;;;;;;5052881;28;19909;-80
2022/10/31 05:40:33;;;;;;;;;;;13.60;99.90;;;;;;5052201;28;19968;-81
2022/10/31 05:42:58;;;;;;;;;;;13.50;99.90;;;;;;5052382;28;20376;-80
2022/10/31 05:45:24;;;;;;;;;;;13.50;99.90;;;;;;5052144;28;20408;-80
2022/10/31 05:47:50;;;;;;;;;;;13.40;99.90;;;;;;5052383;28;20299;-80
2022/10/31 05:50:16;;;;;;;;;;;13.40;99.90;;;;;;5051082;28;19955;-80
2022/10/31 05:52:41;;;;;;;;;;;13.30;99.90;;;;;;5051971;28;19998;-80
2022/10/31 05:55:07;;;;;;;;;;;13.30;99.90;;;;;;5034161;28;19935;-80
2022/10/31 05:57:33;;;;;;;;;;;13.20;99.90;;;;;;5034289;28;19909;-80
2022/10/31 05:59:59;;;;;;;;;;;13.20;99.90;;;;;;5050872;28;19924;-80
2022/10/31 06:02:25;;;;;;;;;;;13.10;99.90;;;;;;5052335;28;19912;-80
2022/10/31 06:04:50;;;;;;;;;;;13.10;99.90;;;;;;5034504;28;19909;-79
2022/10/31 06:07:15;;;;;;;;;;;13.20;99.90;;;;;;5051940;28;19908;-80
2022/10/31 06:09:41;;;;;;;;;;;13.10;99.90;;;;;;5034437;28;20283;-80
2022/10/31 06:12:06;;;;;;;;;;;13.20;99.90;;;;;;5034295;28;19909;-80
2022/10/31 06:14:32;;;;;;;;;;;13.20;99.90;;;;;;5052322;28;19908;-80
2022/10/31 06:16:57;;;;;;;;;;;13.30;99.90;;;;;;5051906;28;19963;-79
2022/10/31 06:19:23;;;;;;;;;;;13.30;99.90;;;;;;5052161;28;19909;-80
2022/10/31 06:21:48;;;;;;;;;;;13.30;99.90;;;;;;5052013;28;19913;-80
2022/10/31 06:24:14;;;;;;;;;;;13.30;99.90;;;;;;5051997;28;19908;-80
2022/10/31 06:26:40;;;;;;;;;;;13.30;99.90;;;;;;5051694;28;19909;-81
2022/10/31 06:29:06;;;;;;;;;;;13.30;99.90;;;;;;5052025;28;20452;-79
2022/10/31 06:31:31;;;;;;;;;;;13.40;99.90;;;;;;5034000;28;19909;-79
2022/10/31 06:33:56;;;;;;;;;;;13.40;99.90;;;;;;5051973;28;20300;-80
2022/10/31 06:36:22;;;;;;;;;;;13.40;99.90;;;;;;5051751;28;19960;-80
2022/10/31 06:38:47;;;;;;;;;;;13.40;99.90;;;;;;5051792;28;19909;-80
2022/10/31 06:41:13;;;;;;;;;;;13.30;99.90;;;;;;5051946;28;20359;-80
2022/10/31 06:43:38;;;;;;;;;;;13.30;99.90;;;;;;5051742;28;19939;-80
2022/10/31 06:46:04;;;;;;;;;;;13.30;99.90;;;;;;5051589;28;19909;-80
2022/10/31 06:48:30;;;;;;;;;;;13.30;99.90;;;;;;5033847;28;19920;-80
2022/10/31 06:50:59;;;;;;;;;;;13.40;99.90;;;;;;5051706;28;19909;-80
2022/10/31 06:53:25;;;;;;;;;;;13.40;99.90;;;;;;5054128;28;19959;-80
2022/10/31 06:55:50;;;;;;;;;;;13.40;99.90;;;;;;5055440;28;19912;-80
2022/10/31 06:58:16;;;;;;;;;;;13.50;99.90;;;;;;5037408;28;19909;-80
2022/10/31 07:00:41;;;;;;;;;;;13.50;99.90;;;;;;5037193;28;19917;-80
2022/10/31 07:03:09;;;;;;;;;;;13.60;99.90;;;;;;5055249;28;20364;-80
2022/10/31 07:05:35;;;;;;;;;;;13.60;99.90;;;;;;5055073;28;19976;-80
2022/10/31 07:08:01;;;;;;;;;;;13.70;99.90;;;;;;5037175;28;20369;-80
2022/10/31 07:10:28;;;;;;;;;;;13.80;99.90;;;;;;5053942;28;19987;-80
2022/10/31 07:12:54;;;;;;;;;;;13.80;99.90;;;;;;5053784;28;20013;-81
2022/10/31 07:15:20;;;;;;;;;;;13.90;99.90;;;;;;5037080;28;19916;-80
2022/10/31 07:17:45;;;;;;;;;;;14.00;99.90;;;;;;5037040;28;19935;-81
2022/10/31 07:20:11;;;;;;;;;;;14.00;99.90;;;;;;5054854;28;19916;-80
2022/10/31 07:22:37;;;;;;;;;;;14.00;99.90;;;;;;5054999;28;19999;-80
2022/10/31 07:25:03;;;;;;;;;;;14.10;99.90;;;;;;5054843;28;20331;-80
2022/10/31 07:27:28;;;;;;;;;;;14.10;99.90;;;;;;5054730;28;20318;-80
2022/10/31 07:29:54;;;;;;;;;;;14.10;99.90;;;;;;5054698;28;19985;-81
2022/10/31 07:32:19;;;;;;;;;;;14.20;99.90;;;;;;5054580;28;19909;-80
2022/10/31 07:34:44;;;;;;;;;;;14.20;99.90;;;;;;5054533;28;19948;-80
2022/10/31 07:37:10;;;;;;;;;;;14.30;99.90;;;;;;5054400;28;19909;-81
2022/10/31 07:39:35;;;;;;;;;;;14.30;99.90;;;;;;5036594;28;20372;-80
2022/10/31 07:42:01;;;;;;;;;;;14.40;99.90;;;;;;5054576;28;19916;-80
2022/10/31 07:44:26;;;;;;;;;;;14.40;99.90;;;;;;5054446;28;19936;-81
2022/10/31 07:46:52;;;;;;;;;;;14.50;99.90;;;;;;5054264;28;19908;-80
2022/10/31 07:49:17;;;;;;;;;;;14.50;99.90;;;;;;5054789;28;19913;-80
2022/10/31 07:51:43;;;;;;;;;;;14.70;99.90;;;;;;5054441;28;19920;-82
2022/10/31 07:54:08;;;;;;;;;;;14.70;99.90;;;;;;5047567;28;20396;-83
2022/10/31 07:56:33;;;;;;;;;;;14.80;99.90;;;;;;5074788;28;19927;-82
2022/10/31 07:58:59;;;;;;;;;;;14.80;99.90;;;;;;5057367;28;19912;-83
2022/10/31 08:01:24;;;;;;;;;;;14.90;99.90;;;;;;5057108;28;19916;-82
2022/10/31 08:03:50;;;;;;;;;;;15.00;99.90;;;;;;5055755;28;19969;-80
2022/10/31 08:06:15;;;;;;;;;;;15.00;99.90;;;;;;5058830;28;19909;-82
2022/10/31 08:08:41;;;;;;;;;;;15.10;99.90;;;;;;5054391;28;19909;-82
2022/10/31 08:11:06;;;;;;;;;;;15.20;99.90;;;;;;5036400;28;20398;-81
2022/10/31 08:13:32;;;;;;;;;;;15.20;99.90;;;;;;5056022;28;19916;-85
2022/10/31 08:16:03;;;;;;;;;;;15.20;99.90;;;;;;5055961;28;19948;-82
2022/10/31 08:18:29;;;;;;;;;;;15.20;99.90;;;;;;5038837;28;19913;-83
2022/10/31 08:20:54;;;;;;;;;;;15.20;99.90;;;;;;5056351;28;19931;-83
2022/10/31 08:23:20;;;;;;;;;;;15.20;99.90;;;;;;5055750;28;19951;-83
2022/10/31 08:25:47;;;;;;;;;;;15.30;99.90;;;;;;5037695;28;19916;-83
2022/10/31 08:28:12;;;;;;;;;;;15.30;99.90;;;;;;5037825;28;19999;-87
2022/10/31 08:30:38;;;;;;;;;;;15.40;99.90;;;;;;5057293;28;19944;-85
2022/10/31 08:33:08;;;;;;;;;;;15.40;99.90;;;;;;5055381;28;19915;-85
2022/10/31 08:35:34;;;;;;;;;;;15.40;99.90;;;;;;5037103;28;19919;-83
2022/10/31 08:38:00;;;;;;;;;;;15.50;99.90;;;;;;5037999;28;20011;-84
2022/10/31 08:40:26;;;;;;;;;;;15.60;99.90;;;;;;5054735;28;19927;-79
2022/10/31 08:42:56;;;;;;;;;;;15.80;99.90;;;;;;5065245;28;19917;-84
2022/10/31 08:45:21;;;;;;;;;;;15.90;99.90;;;;;;5046713;28;19919;-82
2022/10/31 08:47:47;;;;;;;;;;;16.00;99.90;;;;;;5075261;28;19909;-84
2022/10/31 08:50:12;;;;;;;;;;;16.10;99.90;;;;;;5074853;28;19939;-82
2022/10/31 08:52:38;;;;;;;;;;;16.30;99.90;;;;;;5074297;28;19912;-84
2022/10/31 08:55:03;;;;;;;;;;;16.30;99.90;;;;;;5074132;28;20017;-82
2022/10/31 08:57:29;;;;;;;;;;;16.40;99.90;;;;;;5057164;28;19958;-83
2022/10/31 09:02:21;;;;;;;;;;;16.60;99.90;;;;;;5100112;22;20948;-81
2022/10/31 09:04:47;;;;;;;;;;;16.70;99.90;;;;;;5032341;28;20417;-79
2022/10/31 09:07:12;;;;;;;;;;;16.80;99.90;;;;;;5053176;28;19920;-78
2022/10/31 09:09:38;;;;;;;;;;;16.90;99.90;;;;;;5053851;28;19913;-79
2022/10/31 09:12:03;;;;;;;;;;;16.90;99.90;;;;;;5035921;28;19954;-79
2022/10/31 09:14:29;;;;;;;;;;;16.90;99.90;;;;;;5035366;28;19915;-78
2022/10/31 09:16:54;;;;;;;;;;;17.00;99.90;;;;;;5034788;28;19909;-78
2022/10/31 09:19:20;;;;;;;;;;;17.20;99.90;;;;;;5053591;28;20265;-79
2022/10/31 09:21:45;;;;;;;;;;;17.30;99.90;;;;;;5053361;28;19908;-79
2022/10/31 09:24:11;;;;;;;;;;;17.40;99.90;;;;;;5053829;28;20279;-78
2022/10/31 09:26:36;;;;;;;;;;;17.50;99.90;;;;;;5035142;28;19909;-78
2022/10/31 09:29:02;;;;;;;;;;;17.70;99.90;;;;;;5053272;28;19916;-79
2022/10/31 09:31:27;;;;;;;;;;;17.80;99.90;;;;;;5034870;28;20340;-82
2022/10/31 09:33:54;;;;;;;;;;;17.90;99.90;;;;;;5034614;28;20311;-82
2022/10/31 09:36:19;;;;;;;;;;;18.10;99.90;;;;;;5052216;28;19920;-82
2022/10/31 09:38:44;;;;;;;;;;;18.20;99.90;;;;;;5032331;28;19917;-81
2022/10/31 09:41:24;;;;;;;;;;;18.30;99.90;;;;;;5011984;28;20360;-81
2022/10/31 09:43:53;;;;;;;;;;;18.20;99.90;;;;;;5011610;28;19913;-82
2022/10/31 09:46:27;;;;;;;;;;;18.10;99.90;;;;;;5032181;28;19909;-81
2022/10/31 09:49:11;;;;;;;;;;;18.10;99.90;;;;;;5015069;28;19914;-82
2022/10/31 09:51:39;;;;;;;;;;;18.00;99.90;;;;;;5014726;28;19964;-82
2022/10/31 09:54:04;;;;;;;;;;;18.10;99.90;;;;;;5032341;28;19917;-83
2022/10/31 09:56:30;;;;;;;;;;;18.20;99.90;;;;;;5014392;28;19913;-81
2022/10/31 09:58:59;;;;;;;;;;;18.30;99.90;;;;;;5014661;28;19919;-81
2022/10/31 10:01:29;;;;;;;;;;;18.50;99.90;;;;;;5013230;28;19984;-81
2022/10/31 10:03:58;;;;;;;;;;;18.80;99.90;;;;;;5005039;28;19917;-81
2022/10/31 10:06:25;;;;;;;;;;;19.00;99.90;;;;;;4994281;28;20383;-81
2022/10/31 10:08:51;;;;;;;;;;;19.20;99.90;;;;;;5008787;28;19948;-83
2022/10/31 10:11:23;;;;;;;;;;;19.40;99.90;;;;;;5034301;28;19909;-82
2022/10/31 10:13:57;;;;;;;;;;;19.50;99.90;;;;;;5026539;28;19909;-81
2022/10/31 10:16:41;;;;;;;;;;;19.50;99.90;;;;;;5004495;28;19927;-81
2022/10/31 10:19:16;;;;;;;;;;;19.70;99.90;;;;;;5008647;28;19909;-82
2022/10/31 10:21:47;;;;;;;;;;;19.90;99.90;;;;;;5010803;28;19963;-82
2022/10/31 10:24:13;;;;;;;;;;;20.20;99.90;;;;;;5012380;28;19920;-80
2022/10/31 10:26:42;;;;;;;;;;;20.40;99.90;;;;;;5045640;28;19908;-83
2022/10/31 10:29:26;;;;;;;;;;;20.50;99.90;;;;;;5023278;28;19909;-82
2022/10/31 10:31:53;;;;;;;;;;;20.60;99.90;;;;;;5024182;28;19913;-81
2022/10/31 10:34:18;;;;;;;;;;;20.60;99.90;;;;;;5023347;28;20280;-81
2022/10/31 10:36:53;;;;;;;;;;;20.50;99.90;;;;;;4998653;28;19924;-81
2022/10/31 10:39:24;;;;;;;;;;;20.50;99.90;;;;;;4999773;28;19910;-81
2022/10/31 10:47:38;;;;;;;;;;;20.70;99.90;;;;;;5016003;28;19982;-82
2022/10/31 10:50:24;;;;;;;;;;;21.30;99.90;;;;;;5011911;28;19958;-81
2022/10/31 10:53:20;;;;;;;;;;;22.00;99.90;;;;;;5017048;28;19959;-82
2022/10/31 10:56:12;;;;;;;;;;;22.80;99.90;;;;;;5034692;28;19913;-81
2022/10/31 10:58:39;;;;;;;;;;;23.30;99.90;;;;;;4995275;28;19931;-81
2022/10/31 11:01:09;;;;;;;;;;;23.60;99.90;;;;;;5017279;28;19916;-82
2022/10/31 11:03:35;;;;;;;;;;;23.90;99.90;;;;;;5035366;28;19948;-81
2022/10/31 11:06:01;;;;;;;;;;;24.50;99.90;;;;;;5034671;28;20272;-83
2022/10/31 11:08:34;;;;;;;;;;;25.20;99.90;;;;;;5035484;28;19909;-82
2022/10/31 11:11:18;;;;;;;;;;;25.80;99.90;;;;;;5034903;28;19913;-82
2022/10/31 11:13:45;;;;;;;;;;;26.40;99.90;;;;;;5035247;28;19909;-82
2022/10/31 11:16:26;;;;;;;;;;;26.50;99.90;;;;;;5016886;28;19913;-82
2022/10/31 11:18:51;;;;;;;;;;;26.40;99.90;;;;;;5034944;28;19909;-82
2022/10/31 11:21:24;;;;;;;;;;;26.50;99.90;;;;;;5034947;28;19943;-82
2022/10/31 11:23:49;;;;;;;;;;;26.30;99.90;;;;;;5034910;28;19915;-82
2022/10/31 11:26:19;;;;;;;;;;;26.00;99.90;;;;;;5016863;28;19909;-81
2022/10/31 11:28:55;;;;;;;;;;;26.20;99.90;;;;;;5017288;28;19909;-82
2022/10/31 11:31:21;;;;;;;;;;;26.40;99.90;;;;;;5016666;28;19916;-82
2022/10/31 11:33:48;;;;;;;;;;;27.00;99.90;;;;;;5034813;28;20288;-82
2022/10/31 11:36:27;;;;;;;;;;;27.70;99.90;;;;;;5016660;28;19924;-81
2022/10/31 11:38:53;;;;;;;;;;;28.50;99.90;;;;;;5016639;28;19910;-82
2022/10/31 11:41:24;;;;;;;;;;;28.90;97.90;;;;;;5016541;28;19909;-80
2022/10/31 11:43:52;;;;;;;;;;;29.10;95.90;;;;;;5034372;28;19910;-80
2022/10/31 11:46:21;;;;;;;;;;;29.00;94.20;;;;;;5016534;28;19916;-80
2022/10/31 11:48:50;;;;;;;;;;;28.80;94.20;;;;;;5034555;28;19956;-80
2022/10/31 11:51:20;;;;;;;;;;;28.70;93.30;;;;;;5034305;28;20374;-80
2022/10/31 11:53:50;;;;;;;;;;;28.80;93.50;;;;;;5016968;28;19909;-80
2022/10/31 11:56:16;;;;;;;;;;;28.80;94.00;;;;;;5016063;28;20368;-80
2022/10/31 11:58:42;;;;;;;;;;;28.80;93.20;;;;;;5034283;28;19916;-80
2022/10/31 12:01:22;;;;;;;;;;;28.40;92.60;;;;;;5014659;28;19917;-80
2022/10/31 12:03:53;;;;;;;;;;;27.80;93.00;;;;;;5016242;28;19933;-80
2022/10/31 12:06:22;;;;;;;;;;;27.30;93.70;;;;;;5034062;28;20003;-80
2022/10/31 12:08:47;;;;;;;;;;;26.70;94.20;;;;;;5016574;28;19910;-79
2022/10/31 12:11:13;;;;;;;;;;;26.40;96.10;;;;;;5033636;28;20269;-79
2022/10/31 12:14:07;;;;;;;;;;;26.20;96.00;;;;;;5034037;28;19910;-79
2022/10/31 12:16:39;;;;;;;;;;;25.60;96.40;;;;;;4929668;28;19925;-80
2022/10/31 12:19:06;;;;;;;;;;;24.80;97.60;;;;;;5033955;28;19905;-80
2022/10/31 12:21:46;;;;;;;;;;;24.10;99.60;;;;;;5015634;28;20340;-79
2022/10/31 12:24:17;;;;;;;;;;;23.80;99.90;;;;;;5016131;28;19931;-79
2022/10/31 12:26:49;;;;;;;;;;;23.50;99.90;;;;;;5015592;28;19913;-81
2022/10/31 12:29:18;;;;;;;;;;;23.30;99.90;;;;;;5015791;28;20364;-81
2022/10/31 12:31:48;;;;;;;;;;;23.30;99.90;;;;;;5027984;28;20004;-80
2022/10/31 12:34:32;;;;;;;;;;;23.10;99.90;;;;;;5002238;28;20364;-82
2022/10/31 12:37:04;;;;;;;;;;;23.10;99.90;;;;;;5027203;28;19962;-82
2022/10/31 12:39:35;;;;;;;;;;;22.90;99.90;;;;;;5035693;28;19913;-81
2022/10/31 12:42:09;;;;;;;;;;;22.80;99.90;;;;;;5053116;28;20356;-81
2022/10/31 12:44:53;;;;;;;;;;;22.80;99.90;;;;;;5023289;28;19915;-80
2022/10/31 12:47:19;;;;;;;;;;;23.00;99.90;;;;;;5018664;28;19913;-81
2022/10/31 12:50:00;;;;;;;;;;;23.00;99.90;;;;;;5036621;28;19915;-80
2022/10/31 12:52:25;;;;;;;;;;;23.00;99.90;;;;;;5053879;28;19931;-81
2022/10/31 12:55:04;;;;;;;;;;;22.80;99.90;;;;;;5032885;28;19916;-81
2022/10/31 12:57:33;;;;;;;;;;;22.50;99.90;;;;;;5014361;28;19992;-81
2022/10/31 13:00:11;;;;;;;;;;;22.30;99.90;;;;;;5016639;28;19916;-81
2022/10/31 13:02:41;;;;;;;;;;;22.20;99.90;;;;;;4995851;28;19917;-82
2022/10/31 13:05:16;;;;;;;;;;;22.00;99.90;;;;;;4995584;28;20357;-81
2022/10/31 13:08:03;;;;;;;;;;;21.90;99.90;;;;;;4996387;28;20284;-82
2022/10/31 13:10:36;;;;;;;;;;;21.90;99.90;;;;;;5013713;28;19917;-83
2022/10/31 13:13:13;;;;;;;;;;;21.90;99.90;;;;;;5013177;28;20397;-81
2022/10/31 13:15:45;;;;;;;;;;;21.90;99.90;;;;;;4995515;28;19956;-82
2022/10/31 13:18:14;;;;;;;;;;;22.20;99.90;;;;;;4995574;28;19909;-82
2022/10/31 13:20:44;;;;;;;;;;;22.30;99.90;;;;;;5012728;28;19920;-82
2022/10/31 13:23:18;;;;;;;;;;;22.30;99.90;;;;;;4995267;28;19970;-81
2022/10/31 13:25:53;;;;;;;;;;;22.30;99.90;;;;;;4995072;28;19916;-81
2022/10/31 13:28:37;;;;;;;;;;;22.40;99.90;;;;;;5013029;28;20388;-82
2022/10/31 13:31:02;;;;;;;;;;;22.30;99.90;;;;;;4998026;28;19966;-81
2022/10/31 13:33:38;;;;;;;;;;;22.20;99.90;;;;;;5023608;28;19909;-82
2022/10/31 13:36:22;;;;;;;;;;;22.30;99.90;;;;;;5034011;28;19913;-83
2022/10/31 13:38:51;;;;;;;;;;;22.30;99.90;;;;;;5034519;28;19992;-82
2022/10/31 13:41:32;;;;;;;;;;;22.20;99.90;;;;;;5034317;28;19952;-82
2022/10/31 13:44:10;;;;;;;;;;;22.10;99.90;;;;;;5034447;28;19955;-81
2022/10/31 13:46:37;;;;;;;;;;;22.20;99.90;;;;;;5033920;28;20024;-82
2022/10/31 13:49:03;;;;;;;;;;;22.00;99.90;;;;;;5034105;28;19913;-82
2022/10/31 13:51:29;;;;;;;;;;;21.90;99.90;;;;;;5052081;28;19916;-82
2022/10/31 13:53:55;;;;;;;;;;;21.70;99.90;;;;;;5034126;28;20379;-82
2022/10/31 13:56:22;;;;;;;;;;;21.50;99.90;;;;;;5033857;28;19913;-82
2022/10/31 13:58:57;;;;;;;;;;;21.30;99.90;;;;;;5051873;28;19909;-81
2022/10/31 14:01:22;;;;;;;;;;;21.20;99.90;;;;;;5036911;28;19912;-80
2022/10/31 14:04:12;;;;;;;;;;;21.10;99.90;;;;;;5038588;28;19924;-81
2022/10/31 14:06:43;;;;;;;;;;;21.10;99.90;;;;;;5038285;28;19909;-80
2022/10/31 14:09:35;;;;;;;;;;;21.10;99.90;;;;;;5056318;28;19909;-81
2022/10/31 14:12:02;;;;;;;;;;;21.10;99.90;;;;;;5034827;28;19931;-81
2022/10/31 14:14:54;;;;;;;;;;;21.00;99.90;;;;;;5039043;28;19912;-81
2022/10/31 14:17:21;;;;;;;;;;;20.90;99.90;;;;;;5000843;28;20375;-80
2022/10/31 14:19:58;;;;;;;;;;;20.90;99.90;;;;;;5056780;28;19909;-81
2022/10/31 14:22:28;;;;;;;;;;;20.90;99.90;;;;;;5038127;28;20082;-82
2022/10/31 14:24:53;;;;;;;;;;;20.80;99.90;;;;;;5056806;28;19912;-82
2022/10/31 14:27:19;;;;;;;;;;;20.70;99.90;;;;;;5038286;28;19957;-81
2022/10/31 14:29:45;;;;;;;;;;;20.70;99.90;;;;;;5057289;28;19908;-82
2022/10/31 14:32:12;;;;;;;;;;;20.70;99.90;;;;;;5056211;28;19909;-81